Time;durP1;ratioP1;P1;durP2;ratioP2;P2;SDS_P1;SDS_P2;PMS_P1;PMS_P2;Temp;Humidity;BMP_temperature;BMP_pressure;BME280_temperature;BME280_humidity;BME280_pressure;Samples;Min_cycle;Max_cycle;Signal;HPM_P1;HPM_P2
2022/07/22 00:00:47;;;;;;;3.85;3.17;;;;;;;16.18;nan;99053.84;5074865;28;20043;-64
2022/07/22 00:03:12;;;;;;;4.85;3.08;;;;;;;16.16;nan;99055.00;5074706;28;20043;-63
2022/07/22 00:05:36;;;;;;;7.47;3.00;;;;;;;16.15;nan;99069.47;5074844;28;20046;-61
2022/07/22 00:08:01;;;;;;;5.05;3.13;;;;;;;16.14;nan;99062.41;5074784;28;20050;-61
2022/07/22 00:10:26;;;;;;;10.05;3.42;;;;;;;16.12;nan;99057.19;5075289;28;20031;-60
2022/07/22 00:12:51;;;;;;;5.40;3.03;;;;;;;16.14;nan;99057.84;5074872;28;20043;-62
2022/07/22 00:15:15;;;;;;;10.10;3.60;;;;;;;16.12;nan;99053.66;5056285;28;20043;-63
2022/07/22 00:17:40;;;;;;;3.83;3.20;;;;;;;16.11;nan;99060.88;5056343;28;20577;-62
2022/07/22 00:20:06;;;;;;;7.18;3.50;;;;;;;16.14;nan;99057.84;5056379;28;20126;-61
2022/07/22 00:22:31;;;;;;;5.18;3.03;;;;;;;16.15;nan;99059.53;5074348;28;20504;-61
2022/07/22 00:24:56;;;;;;;8.10;3.70;;;;;;;16.17;nan;99059.38;5074677;28;20646;-61
2022/07/22 00:27:21;;;;;;;8.90;3.38;;;;;;;16.17;nan;99054.84;5056531;28;20039;-61
2022/07/22 00:29:45;;;;;;;5.07;3.20;;;;;;;16.18;nan;99047.63;5056476;28;20051;-61
2022/07/22 00:32:10;;;;;;;4.57;3.15;;;;;;;16.16;nan;99042.41;5074293;28;20051;-62
2022/07/22 00:34:35;;;;;;;7.60;4.25;;;;;;;16.17;nan;99059.38;5074614;28;20050;-62
2022/07/22 00:37:00;;;;;;;2.88;2.60;;;;;;;16.17;nan;99041.41;5074670;28;20046;-62
2022/07/22 00:39:25;;;;;;;7.60;3.20;;;;;;;16.16;nan;99050.47;5074477;28;20062;-63
2022/07/22 00:41:50;;;;;;;4.70;3.50;;;;;;;16.18;nan;99055.69;5074317;28;20051;-61
2022/07/22 00:44:15;;;;;;;8.77;3.30;;;;;;;16.18;nan;99048.47;5074234;28;20047;-62
2022/07/22 00:46:40;;;;;;;5.65;3.13;;;;;;;16.20;nan;99046.47;5075475;28;20075;-62
2022/07/22 00:49:07;;;;;;;4.68;3.38;;;;;;;16.20;nan;99051.84;5059974;28;20063;-61
2022/07/22 00:51:32;;;;;;;3.50;2.92;;;;;;;16.21;nan;99047.31;5078008;28;20043;-61
2022/07/22 00:53:58;;;;;;;5.60;3.20;;;;;;;16.18;nan;99043.09;5077886;28;20036;-62
2022/07/22 00:56:24;;;;;;;6.78;2.78;;;;;;;16.20;nan;99048.31;5059879;28;20043;-68
2022/07/22 00:58:50;;;;;;;4.30;3.00;;;;;;;16.21;nan;99056.25;5059745;28;20035;-71
2022/07/22 01:01:16;;;;;;;7.00;3.15;;;;;;;16.22;nan;99057.94;5078354;28;20031;-70
2022/07/22 01:03:41;;;;;;;4.60;2.95;;;;;;;16.26;nan;99051.19;5060443;28;20082;-71
2022/07/22 01:06:07;;;;;;;6.30;3.60;;;;;;;16.28;nan;99059.13;5079816;28;20562;-69
2022/07/22 01:08:33;;;;;;;5.47;3.33;;;;;;;16.28;nan;99059.97;5079580;28;20040;-70
2022/07/22 01:11:15;;;;;;;6.22;3.25;;;;;;;16.36;nan;99055.66;5043834;28;20126;-68
2022/07/22 01:13:41;;;;;;;4.95;3.03;;;;;;;16.30;nan;99063.34;5078462;28;20489;-69
2022/07/22 01:16:08;;;;;;;6.95;3.40;;;;;;;16.31;nan;99066.88;5060723;28;20553;-66
2022/07/22 01:18:33;;;;;;;4.85;2.90;;;;;;;16.31;nan;99061.50;5060294;28;20122;-69
2022/07/22 01:20:59;;;;;;;4.63;3.33;;;;;;;16.33;nan;99068.41;5077756;28;20123;-67
2022/07/22 01:23:24;;;;;;;4.28;3.03;;;;;;;16.36;nan;99061.88;5057104;28;20044;-66
2022/07/22 01:25:49;;;;;;;4.40;3.40;;;;;;;16.39;nan;99066.91;5079870;28;20096;-69
2022/07/22 01:28:14;;;;;;;3.70;3.08;;;;;;;16.41;nan;99072.13;5079377;28;20040;-66
2022/07/22 01:30:39;;;;;;;3.58;2.85;;;;;;;16.40;nan;99068.59;5060540;28;20097;-67
2022/07/22 01:33:04;;;;;;;15.98;2.78;;;;;;;16.39;nan;99069.59;5060131;28;20039;-70
2022/07/22 01:35:28;;;;;;;8.52;3.20;;;;;;;16.38;nan;99069.75;5060446;28;20520;-66
2022/07/22 01:37:53;;;;;;;3.63;2.92;;;;;;;16.39;nan;99071.44;5061423;28;20485;-69
2022/07/22 01:40:18;;;;;;;4.07;3.03;;;;;;;16.41;nan;99078.34;5027292;28;20521;-68
2022/07/22 01:42:43;;;;;;;3.28;2.92;;;;;;;16.44;nan;99082.59;5060910;28;20040;-69
2022/07/22 01:45:10;;;;;;;5.13;3.13;;;;;;;16.47;nan;99082.28;5028284;28;20039;-62
2022/07/22 01:47:34;;;;;;;3.58;3.10;;;;;;;16.50;nan;99084.63;5059684;28;20044;-63
2022/07/22 01:49:59;;;;;;;4.13;2.80;;;;;;;16.53;nan;99089.69;5060176;28;20104;-63
2022/07/22 01:52:24;;;;;;;6.32;3.20;;;;;;;16.56;nan;99082.16;5079444;28;20089;-64
2022/07/22 01:54:49;;;;;;;4.18;3.05;;;;;;;16.60;nan;99088.03;5077313;28;20052;-64
2022/07/22 01:57:14;;;;;;;6.97;3.47;;;;;;;16.63;nan;99085.06;5041896;28;20047;-61
2022/07/22 01:59:45;;;;;;;5.13;3.03;;;;;;;16.68;nan;99082.72;5058952;28;20070;-62
2022/07/22 02:02:10;;;;;;;4.57;3.20;;;;;;;16.73;nan;99091.16;5058919;28;20067;-62
2022/07/22 02:04:34;;;;;;;3.30;2.95;;;;;;;16.76;nan;99082.75;5076927;28;20557;-63
2022/07/22 02:06:59;;;;;;;6.18;2.95;;;;;;;16.82;nan;99092.00;5058367;28;20051;-61
2022/07/22 02:09:24;;;;;;;5.78;3.50;;;;;;;16.86;nan;99091.53;5058555;28;20042;-62
2022/07/22 02:11:51;;;;;;;4.72;2.95;;;;;;;16.91;nan;99101.84;5058482;28;20043;-64
2022/07/22 02:14:17;;;;;;;3.50;3.15;;;;;;;16.94;nan;99094.25;5058555;28;20528;-63
2022/07/22 02:16:42;;;;;;;5.15;3.10;;;;;;;16.98;nan;99095.63;5058600;28;20070;-63
2022/07/22 02:19:09;;;;;;;8.45;3.38;;;;;;;17.01;nan;99095.31;5058886;28;20460;-61
2022/07/22 02:21:34;;;;;;;6.65;3.63;;;;;;;17.01;nan;99098.00;5058582;28;20413;-62
2022/07/22 02:23:59;;;;;;;4.20;3.28;;;;;;;17.02;nan;99094.31;5058025;28;20080;-61
2022/07/22 02:26:24;;;;;;;4.63;3.22;;;;;;;17.03;nan;99105.91;5044543;28;20048;-62
2022/07/22 02:28:49;;;;;;;4.82;3.30;;;;;;;17.05;nan;99102.03;5045052;28;20036;-62
2022/07/22 02:31:14;;;;;;;5.78;3.75;;;;;;;17.10;nan;99108.78;5025292;28;20062;-61
2022/07/22 02:33:38;;;;;;;3.35;3.05;;;;;;;17.15;nan;99106.44;5049039;28;20067;-62
2022/07/22 02:36:04;;;;;;;4.70;3.58;;;;;;;17.18;nan;99109.63;5048153;28;20035;-62
2022/07/22 02:38:31;;;;;;;6.82;3.40;;;;;;;17.23;nan;99115.41;5020034;28;20931;-62
2022/07/22 02:40:56;;;;;;;3.40;2.72;;;;;;;17.30;nan;99116.41;5061094;28;20557;-62
2022/07/22 02:43:21;;;;;;;5.78;3.15;;;;;;;17.39;nan;99125.34;5060577;28;20046;-62
2022/07/22 02:45:46;;;;;;;10.05;3.67;;;;;;;17.47;nan;99109.22;5033246;28;20071;-62
2022/07/22 02:48:11;;;;;;;3.97;2.85;;;;;;;17.55;nan;99122.69;5030252;28;20144;-63
2022/07/22 02:50:37;;;;;;;6.80;3.53;;;;;;;17.66;nan;99121.56;5031046;28;20420;-62
2022/07/22 02:53:04;;;;;;;4.70;2.95;;;;;;;17.74;nan;99130.47;5045366;28;20116;-62
2022/07/22 02:55:33;;;;;;;6.30;3.40;;;;;;;17.81;nan;99117.19;5041625;28;20039;-62
2022/07/22 02:58:08;;;;;;;5.80;3.30;;;;;;;17.95;nan;99115.66;5028135;28;20044;-62
2022/07/22 03:00:34;;;;;;;6.10;3.42;;;;;;;17.99;nan;99125.09;5035296;28;20044;-62
2022/07/22 03:02:58;;;;;;;3.70;3.22;;;;;;;18.08;nan;99129.47;5020767;28;20036;-62
2022/07/22 03:05:23;;;;;;;6.10;3.10;;;;;;;18.17;nan;99125.78;5037716;28;20055;-64
2022/07/22 03:07:53;;;;;;;3.42;3.08;;;;;;;18.26;nan;99138.22;5037769;28;20105;-63
2022/07/22 03:10:19;;;;;;;4.20;2.95;;;;;;;18.35;nan;99144.44;5039087;28;20506;-63
2022/07/22 03:12:45;;;;;;;9.15;2.95;;;;;;;18.39;nan;99141.25;5046790;28;20344;-62
2022/07/22 03:15:09;;;;;;;3.67;3.08;;;;;;;18.42;nan;99142.75;5044903;28;20044;-66
2022/07/22 03:17:36;;;;;;;5.72;3.88;;;;;;;18.38;nan;99150.38;5064892;28;20075;-64
2022/07/22 03:20:08;;;;;;;6.55;3.33;;;;;;;18.31;nan;99149.34;5030037;28;20063;-63
2022/07/22 03:22:33;;;;;;;3.85;2.88;;;;;;;18.22;nan;99142.28;5060887;28;20085;-64
2022/07/22 03:24:59;;;;;;;7.43;3.95;;;;;;;18.26;nan;99146.31;5046007;28;20047;-63
2022/07/22 03:27:24;;;;;;;7.63;4.35;;;;;;;18.35;nan;99145.28;5044429;28;20040;-63
2022/07/22 03:29:49;;;;;;;4.30;3.30;;;;;;;18.43;nan;99142.56;5020556;28;20093;-65
2022/07/22 03:32:13;;;;;;;4.40;3.10;;;;;;;18.54;nan;99151.31;5056877;28;20035;-67
2022/07/22 03:34:44;;;;;;;3.30;3.05;;;;;;;18.68;nan;99145.25;5056970;28;20047;-67
2022/07/22 03:37:09;;;;;;;7.22;2.97;;;;;;;18.79;nan;99150.28;5056906;28;20054;-66
2022/07/22 03:39:35;;;;;;;3.80;2.95;;;;;;;18.88;nan;99165.44;5040070;28;20043;-65
2022/07/22 03:42:00;;;;;;;4.40;3.42;;;;;;;18.85;nan;99165.78;5075311;28;20039;-66
2022/07/22 03:44:26;;;;;;;4.10;3.00;;;;;;;18.78;nan;99170.19;5056644;28;20444;-66
2022/07/22 03:46:51;;;;;;;4.10;2.92;;;;;;;18.68;nan;99175.78;5056701;28;20040;-67
2022/07/22 03:49:15;;;;;;;3.88;3.17;;;;;;;18.72;nan;99168.19;5039953;28;20137;-67
2022/07/22 03:51:41;;;;;;;5.45;3.25;;;;;;;18.85;nan;99169.31;5056680;28;20035;-66
2022/07/22 03:54:05;;;;;;;3.78;3.13;;;;;;;19.01;nan;99179.25;5056736;28;20493;-67
2022/07/22 03:56:33;;;;;;;5.93;3.67;;;;;;;19.16;nan;99172.09;5056670;28;20043;-67
2022/07/22 03:58:58;;;;;;;4.82;3.40;;;;;;;19.31;nan;99174.88;5056838;28;20043;-66
2022/07/22 04:01:23;;;;;;;7.97;3.55;;;;;;;19.44;nan;99171.59;5074880;28;20043;-66
2022/07/22 04:03:48;;;;;;;3.50;3.20;;;;;;;19.58;nan;99179.84;5056671;28;20050;-66
2022/07/22 04:06:33;;;;;;;3.75;2.65;;;;;;;19.72;nan;99189.06;5074094;28;20135;-66
2022/07/22 04:09:05;;;;;;;4.90;2.97;;;;;;;19.81;nan;99189.84;5039853;28;20039;-67
2022/07/22 04:11:32;;;;;;;6.38;3.20;;;;;;;19.90;nan;99192.28;5056618;28;20115;-66
2022/07/22 04:13:57;;;;;;;5.18;2.95;;;;;;;19.88;nan;99188.91;5056806;28;20135;-66
2022/07/22 04:16:21;;;;;;;4.35;2.90;;;;;;;19.93;nan;99183.81;5056448;28;20085;-66
2022/07/22 04:18:54;;;;;;;5.50;2.65;;;;;;;19.96;nan;99187.19;5056446;28;20055;-67
2022/07/22 04:21:36;;;;;;;3.65;3.20;;;;;;;20.07;nan;99197.59;5057891;28;20089;-66
2022/07/22 04:24:08;;;;;;;5.03;2.92;;;;;;;20.14;nan;99193.97;5043380;28;20147;-67
2022/07/22 04:26:34;;;;;;;3.42;2.92;;;;;;;20.23;nan;99189.34;5078936;28;20092;-66
2022/07/22 04:28:58;;;;;;;5.40;3.05;;;;;;;20.36;nan;99188.75;5060580;28;20047;-66
2022/07/22 04:31:24;;;;;;;2.65;2.45;;;;;;;20.54;nan;99200.91;5079082;28;20130;-65
2022/07/22 04:33:59;;;;;;;5.82;3.05;;;;;;;20.58;nan;99194.13;5043524;28;20414;-65
2022/07/22 04:36:24;;;;;;;3.70;2.92;;;;;;;20.63;nan;99210.66;5060332;28;20036;-66
2022/07/22 04:38:51;;;;;;;4.93;3.00;;;;;;;20.78;nan;99204.41;5060154;28;20474;-65
2022/07/22 04:41:17;;;;;;;6.57;3.28;;;;;;;20.92;nan;99204.44;5043449;28;20040;-65
2022/07/22 04:43:42;;;;;;;4.70;3.85;;;;;;;21.14;nan;99202.66;5060120;28;20045;-65
2022/07/22 04:46:07;;;;;;;4.72;3.20;;;;;;;21.50;nan;99212.75;5078672;28;20054;-65
2022/07/22 04:48:34;;;;;;;8.65;3.10;;;;;;;21.82;nan;99209.56;5043047;28;20574;-65
2022/07/22 04:51:00;;;;;;;4.00;2.90;;;;;;;22.23;nan;99211.69;5078258;28;20135;-66
2022/07/22 04:53:26;;;;;;;2.80;2.53;;;;;;;22.69;nan;99212.91;5060156;28;20070;-64
2022/07/22 04:55:51;;;;;;;2.28;2.08;;;;;;;23.11;nan;99211.13;5060224;28;20039;-65
2022/07/22 04:58:16;;;;;;;3.25;2.72;;;;;;;23.56;nan;99203.44;5059973;28;20151;-66
2022/07/22 05:00:41;;;;;;;4.38;2.83;;;;;;;23.98;nan;99218.63;5059854;28;20078;-66
2022/07/22 05:03:06;;;;;;;4.35;2.60;;;;;;;24.29;nan;99212.63;5042982;28;20039;-65
2022/07/22 05:05:31;;;;;;;4.90;2.75;;;;;;;24.46;nan;99227.53;5059731;28;20039;-65
2022/07/22 05:07:56;;;;;;;7.32;4.03;;;;;;;24.34;nan;99227.31;5059849;28;20058;-66
2022/07/22 05:10:23;;;;;;;5.68;2.92;;;;;;;24.41;nan;99228.16;5043699;28;20067;-64
2022/07/22 05:12:48;;;;;;;3.10;2.53;;;;;;;24.53;nan;99229.22;5080985;28;20071;-68
2022/07/22 05:15:13;;;;;;;3.17;2.75;;;;;;;24.71;nan;99231.31;5060607;28;20043;-67
2022/07/22 05:17:38;;;;;;;5.20;3.10;;;;;;;24.83;nan;99228.78;5059864;28;20047;-67
2022/07/22 05:20:16;;;;;;;3.08;2.78;;;;;;;24.90;nan;99230.44;5042841;28;20059;-66
2022/07/22 05:22:41;;;;;;;5.05;2.72;;;;;;;25.05;nan;99234.88;5059893;28;20039;-67
2022/07/22 05:25:12;;;;;;;7.15;2.78;;;;;;;25.16;nan;99239.69;5077714;28;20056;-67
2022/07/22 05:27:37;;;;;;;6.82;2.78;;;;;;;25.36;nan;99237.72;5059567;28;20051;-66
2022/07/22 05:30:03;;;;;;;4.40;2.78;;;;;;;25.36;nan;99237.72;5059280;28;20413;-67
2022/07/22 05:32:30;;;;;;;2.72;2.42;;;;;;;25.39;nan;99237.31;5058808;28;20093;-67
2022/07/22 05:34:59;;;;;;;5.70;2.90;;;;;;;25.47;nan;99234.34;5059245;28;20043;-68
2022/07/22 05:37:24;;;;;;;3.42;2.75;;;;;;;25.48;nan;99238.75;5059108;28;20043;-67
2022/07/22 05:39:49;;;;;;;3.28;2.70;;;;;;;25.64;nan;99234.72;5059218;28;20054;-67
2022/07/22 05:42:13;;;;;;;3.53;2.78;;;;;;;25.89;nan;99232.06;5058964;28;20046;-67
2022/07/22 05:44:38;;;;;;;3.85;2.85;;;;;;;26.19;nan;99238.63;5042079;28;20414;-68
2022/07/22 05:47:03;;;;;;;5.25;3.08;;;;;;;26.50;nan;99229.63;5058911;28;20051;-67
2022/07/22 05:49:28;;;;;;;3.70;2.88;;;;;;;26.87;nan;99230.53;5058931;28;20048;-68
2022/07/22 05:52:00;;;;;;;4.45;2.70;;;;;;;27.27;nan;99238.41;5042071;28;20039;-68
2022/07/22 05:54:26;;;;;;;9.93;2.83;;;;;;;27.28;nan;99246.38;5042260;28;20497;-67
2022/07/22 05:56:51;;;;;;;4.25;2.60;;;;;;;27.33;nan;99235.56;5058991;28;20134;-67
2022/07/22 05:59:16;;;;;;;6.65;2.95;;;;;;;27.14;nan;99241.25;5059380;28;20173;-67
2022/07/22 06:01:42;;;;;;;6.25;3.20;;;;;;;27.42;nan;99244.34;5059741;28;20516;-67
2022/07/22 06:04:26;;;;;;;5.22;2.80;;;;;;;27.80;nan;99230.41;5078666;28;20126;-67
2022/07/22 06:06:51;;;;;;;11.23;3.67;;;;;;;27.73;nan;99237.88;5042725;28;20043;-69
2022/07/22 06:09:16;;;;;;;4.50;3.17;;;;;;;28.18;nan;99246.56;5059041;28;20175;-67
2022/07/22 06:11:42;;;;;;;6.50;3.70;;;;;;;28.95;nan;99233.75;5058457;28;20059;-68
2022/07/22 06:14:07;;;;;;;5.43;3.30;;;;;;;29.46;nan;99322.84;5058595;28;20498;-66
2022/07/22 06:16:34;;;;;;;4.75;2.80;;;;;;;30.11;nan;99325.38;5058554;28;20521;-68
2022/07/22 06:19:00;;;;;;;4.00;3.58;;;;;;;30.94;nan;99333.81;5058220;28;20038;-67
2022/07/22 06:21:25;;;;;;;4.10;3.22;;;;;;;31.62;nan;99251.97;5058820;28;20040;-67
2022/07/22 06:23:49;;;;;;;3.92;3.03;;;;;;;32.23;nan;99258.28;5076591;28;20047;-66
2022/07/22 06:26:15;;;;;;;4.00;3.47;;;;;;;32.77;nan;99253.56;5058353;28;20047;-67
2022/07/22 06:28:40;;;;;;;3.33;3.00;;;;;;;33.00;nan;99249.59;5077379;28;20047;-67
2022/07/22 06:31:05;;;;;;;9.88;4.68;;;;;;;33.15;nan;99253.31;5058265;28;20047;-67
2022/07/22 06:33:33;;;;;;;5.93;3.60;;;;;;;33.26;nan;99248.72;5058535;28;20524;-67
2022/07/22 06:35:59;;;;;;;3.45;3.15;;;;;;;33.74;nan;99344.38;5041576;28;20043;-67
2022/07/22 06:38:26;;;;;;;5.32;4.00;;;;;;;34.09;nan;99318.00;5058100;28;20047;-67
2022/07/22 06:41:29;;;;;;;7.82;3.60;;;;;;;33.88;nan;99345.56;4993900;28;20500;-67
2022/07/22 06:44:18;;;;;;;7.28;3.88;;;;;;;34.05;nan;99334.31;4963611;28;20045;-68
2022/07/22 06:47:15;;;;;;;6.63;4.10;;;;;;;34.44;nan;99350.53;4935441;28;20055;-67
2022/07/22 06:49:40;;;;;;;5.97;3.40;;;;;;;34.85;nan;99335.69;4935165;28;20051;-68
2022/07/22 06:52:05;;;;;;;4.70;3.60;;;;;;;35.58;nan;99343.72;4935295;28;20145;-67
2022/07/22 06:54:31;;;;;;;5.07;4.00;;;;;;;35.71;nan;99339.53;4935478;28;20081;-67
2022/07/22 06:56:58;;;;;;;5.05;3.50;;;;;;;35.34;nan;99350.94;4935812;28;20051;-67
2022/07/22 06:59:27;;;;;;;5.07;3.75;;;;;;;35.41;nan;99337.66;4935083;28;20063;-67
2022/07/22 07:01:53;;;;;;;7.00;4.88;;;;;;;35.27;nan;99324.38;4935983;28;20037;-67
2022/07/22 07:04:18;;;;;;;6.93;3.83;;;;;;;35.54;nan;99329.59;4919503;28;20412;-67
2022/07/22 07:06:43;;;;;;;6.65;4.07;;;;;;;35.10;nan;99329.34;4935166;28;20050;-68
2022/07/22 07:09:28;;;;;;;4.93;3.65;;;;;;;34.74;nan;99331.22;4915803;29;20399;-67
2022/07/22 07:12:13;;;;;;;12.02;3.97;;;;;;;34.51;nan;99331.72;4927451;28;20081;-67
2022/07/22 07:14:56;;;;;;;7.10;3.77;;;;;;;35.12;nan;99348.44;4940632;28;20061;-67
2022/07/22 07:17:21;;;;;;;4.05;3.70;;;;;;;35.95;nan;99335.06;4937941;28;20405;-66
2022/07/22 07:19:46;;;;;;;6.32;3.45;;;;;;;36.95;nan;99332.03;4937891;28;20414;-67
2022/07/22 07:22:11;;;;;;;5.63;3.60;;;;;;;36.90;nan;99335.69;4963010;28;20076;-67
2022/07/22 07:24:36;;;;;;;5.38;3.70;;;;;;;36.77;nan;99263.28;4976905;28;20140;-67
2022/07/22 07:27:00;;;;;;;4.90;3.53;;;;;;;36.79;nan;99269.38;4993333;28;20062;-67
2022/07/22 07:29:25;;;;;;;5.30;3.63;;;;;;;37.12;nan;99271.31;4960435;28;20133;-67
2022/07/22 07:31:51;;;;;;;4.85;3.13;;;;;;;36.75;nan;99265.50;4959953;28;20053;-67
2022/07/22 07:34:16;;;;;;;6.40;4.15;;;;;;;36.25;nan;99267.50;4960213;28;20152;-67
2022/07/22 07:36:41;;;;;;;4.38;3.15;;;;;;;35.40;nan;99250.06;4993294;28;20419;-67
2022/07/22 07:39:07;;;;;;;10.77;3.55;;;;;;;34.07;nan;99329.34;4976965;28;20128;-68
2022/07/22 07:41:33;;;;;;;5.28;3.60;;;;;;;34.03;nan;99347.59;4993040;28;20045;-65
2022/07/22 07:43:59;;;;;;;3.63;3.33;;;;;;;33.19;nan;99264.66;4978207;28;20049;-67
2022/07/22 07:46:24;;;;;;;3.65;3.35;;;;;;;32.30;nan;99262.47;5027956;28;20051;-65
2022/07/22 07:48:50;;;;;;;3.72;3.00;;;;;;;31.54;nan;99252.41;5057233;28;20040;-66
2022/07/22 07:51:15;;;;;;;8.48;3.13;;;;;;;31.48;nan;99245.19;5056764;28;20058;-65
2022/07/22 07:53:40;;;;;;;6.20;3.50;;;;;;;32.98;nan;99257.31;5040273;28;20047;-66
2022/07/22 07:56:05;;;;;;;3.53;3.22;;;;;;;34.36;nan;99331.69;5056816;28;20066;-64
2022/07/22 07:58:30;;;;;;;4.75;3.30;;;;;;;34.31;nan;99265.25;5039887;28;20047;-66
2022/07/22 08:00:55;;;;;;;4.18;3.22;;;;;;;33.41;nan;99272.88;5056599;28;20040;-66
2022/07/22 08:03:21;;;;;;;4.95;3.10;;;;;;;32.31;nan;99263.31;5056745;28;20040;-66
2022/07/22 08:05:46;;;;;;;6.63;3.78;;;;;;;31.45;nan;99267.72;5056619;28;20048;-66
2022/07/22 08:08:15;;;;;;;6.55;3.78;;;;;;;31.94;nan;99276.97;5040546;28;20122;-67
2022/07/22 08:10:42;;;;;;;6.45;3.42;;;;;;;33.28;nan;99265.88;5040136;28;20047;-65
2022/07/22 08:13:20;;;;;;;5.82;3.85;;;;;;;35.01;nan;99260.88;5056532;28;20478;-65
2022/07/22 08:16:08;;;;;;;4.65;3.72;;;;;;;35.49;nan;99260.28;4998794;28;20183;-65
2022/07/22 08:18:33;;;;;;;4.70;3.33;;;;;;;35.86;nan;99271.00;4995979;28;20048;-66
2022/07/22 08:20:58;;;;;;;4.00;3.45;;;;;;;36.90;nan;99268.19;5012462;28;20063;-66
2022/07/22 08:23:34;;;;;;;4.10;3.70;;;;;;;38.29;nan;99273.59;4980554;28;20036;-66
2022/07/22 08:26:00;;;;;;;3.75;3.45;;;;;;;39.43;nan;99263.97;4995620;28;20761;-66
2022/07/22 08:28:25;;;;;;;5.13;3.47;;;;;;;38.44;nan;99270.59;4979179;28;20990;-65
2022/07/22 08:30:50;;;;;;;4.80;3.90;;;;;;;38.41;nan;99270.38;4995428;28;20056;-65
2022/07/22 08:33:14;;;;;;;5.75;3.88;;;;;;;37.69;nan;99278.00;4995506;28;20527;-68
2022/07/22 08:35:40;;;;;;;4.75;3.30;;;;;;;36.31;nan;99281.06;4995869;28;20695;-65
2022/07/22 08:38:05;;;;;;;3.78;3.35;;;;;;;35.06;nan;99258.94;4995889;28;20642;-66
2022/07/22 08:40:32;;;;;;;4.55;3.42;;;;;;;33.67;nan;99273.81;4995730;28;20140;-66
2022/07/22 08:43:02;;;;;;;6.03;3.88;;;;;;;33.09;nan;99276.47;4995710;28;20125;-66
2022/07/22 08:45:30;;;;;;;4.03;3.45;;;;;;;33.02;nan;99281.41;4995860;28;20107;-66
2022/07/22 08:47:56;;;;;;;6.97;3.55;;;;;;;32.78;nan;99275.41;4995478;28;20542;-66
2022/07/22 08:50:53;;;;;;;8.65;3.40;;;;;;;34.02;nan;99276.75;4940896;28;20085;-66
2022/07/22 08:53:38;;;;;;;18.63;4.47;;;;;;;35.97;nan;99272.63;4994221;28;20144;-66
2022/07/22 08:56:12;;;;;;;5.97;4.15;;;;;;;35.95;nan;99279.56;4978692;28;20560;-66
2022/07/22 08:58:37;;;;;;;7.25;3.60;;;;;;;35.99;nan;99275.94;5012080;28;20585;-66
2022/07/22 09:01:09;;;;;;;3.67;3.38;;;;;;;37.33;nan;99288.66;4995340;28;20053;-67
2022/07/22 09:03:56;;;;;;;5.28;3.60;;;;;;;37.27;nan;99298.97;4996121;28;20036;-66
2022/07/22 09:06:30;;;;;;;6.70;3.90;;;;;;;36.47;nan;99287.34;4980856;28;20053;-67
2022/07/22 09:09:04;;;;;;;7.38;4.00;;;;;;;37.21;nan;99291.00;5015684;28;20053;-66
2022/07/22 09:11:48;;;;;;;8.18;3.85;;;;;;;38.13;nan;99288.88;5016223;28;20048;-65
2022/07/22 09:14:50;;;;;;;4.10;3.80;;;;;;;39.54;nan;99296.94;4977881;28;20056;-66
2022/07/22 09:17:35;;;;;;;5.25;3.88;;;;;;;40.13;nan;99401.34;4998916;28;20427;-66
2022/07/22 09:20:30;;;;;;;4.88;4.47;;;;;;;40.95;nan;99367.72;4976299;28;20050;-66
2022/07/22 09:23:18;;;;;;;5.50;4.47;;;;;;;41.68;nan;99407.59;4977191;28;20106;-66
2022/07/22 09:25:44;;;;;;;5.15;4.70;;;;;;;41.66;nan;99376.31;4955428;28;20540;-66
2022/07/22 09:28:24;;;;;;;5.25;4.47;;;;;;;40.90;nan;99285.91;5002858;28;20395;-66
2022/07/22 09:31:36;;;;;;;4.80;4.40;;;;;;;38.79;nan;99294.31;5016181;28;20063;-66
2022/07/22 09:34:34;;;;;;;5.10;4.10;;;;;;;36.43;nan;99293.78;5015903;28;20056;-65
2022/07/22 09:37:19;;;;;;;4.68;3.78;;;;;;;34.26;nan;99284.59;5015033;28;20191;-66
2022/07/22 09:39:44;;;;;;;7.75;3.75;;;;;;;33.29;nan;99286.88;5016406;28;20134;-65
2022/07/22 09:42:11;;;;;;;6.82;3.90;;;;;;;32.66;nan;99285.75;4998569;28;20067;-65
2022/07/22 09:44:36;;;;;;;3.85;3.35;;;;;;;31.88;nan;99289.00;5015147;28;20053;-66
2022/07/22 09:47:29;;;;;;;5.05;3.42;;;;;;;31.29;nan;99289.53;4998092;28;20425;-65
2022/07/22 09:50:18;;;;;;;3.47;3.17;;;;;;;31.05;nan;99293.53;4998088;28;20110;-65
2022/07/22 09:53:02;;;;;;;7.47;3.05;;;;;;;30.88;nan;99278.94;5014479;28;20078;-66
2022/07/22 09:55:29;;;;;;;3.67;3.33;;;;;;;31.10;nan;99285.41;5014941;28;20915;-65
2022/07/22 09:57:55;;;;;;;3.67;3.05;;;;;;;31.12;nan;99288.72;4998383;28;20131;-66
2022/07/22 10:00:23;;;;;;;7.63;3.50;;;;;;;31.86;nan;99292.00;5015936;28;20531;-66
2022/07/22 10:02:59;;;;;;;3.70;3.38;;;;;;;33.29;nan;99288.81;5046575;28;20048;-66
2022/07/22 10:05:31;;;;;;;12.93;3.70;;;;;;;35.49;nan;99293.56;5060175;28;20104;-65
2022/07/22 10:07:57;;;;;;;5.18;4.13;;;;;;;37.39;nan;99298.56;5060185;28;20049;-66
2022/07/22 10:10:25;;;;;;;4.95;3.75;;;;;;;39.38;nan;99303.09;5060412;28;20058;-67
2022/07/22 10:12:52;;;;;;;4.55;4.10;;;;;;;40.66;nan;99291.78;5059581;28;20031;-67
2022/07/22 10:15:17;;;;;;;3.92;3.58;;;;;;;40.44;nan;99297.34;5042634;28;20248;-67
2022/07/22 10:17:55;;;;;;;4.50;3.78;;;;;;;39.18;nan;99302.31;5059976;28;20043;-67
2022/07/22 10:20:23;;;;;;;7.28;4.13;;;;;;;37.37;nan;99300.81;5058073;28;20051;-67
2022/07/22 10:23:08;;;;;;;3.75;3.42;;;;;;;35.91;nan;99300.66;5042450;28;20120;-68
2022/07/22 10:25:53;;;;;;;4.75;3.38;;;;;;;33.96;nan;99294.47;5077531;28;20162;-68
2022/07/22 10:28:37;;;;;;;6.20;3.45;;;;;;;32.39;nan;99288.50;5058569;28;20039;-67
2022/07/22 10:31:24;;;;;;;7.35;3.28;;;;;;;32.81;nan;99290.63;5058251;28;20521;-67
2022/07/22 10:33:55;;;;;;;4.43;3.42;;;;;;;33.85;nan;99290.81;5076695;28;20059;-68
2022/07/22 10:36:42;;;;;;;4.13;3.30;;;;;;;33.86;nan;99292.44;5076398;28;20047;-67
2022/07/22 10:39:10;;;;;;;3.33;3.05;;;;;;;32.76;nan;99307.94;5057980;28;20043;-68
2022/07/22 10:41:37;;;;;;;5.85;3.20;;;;;;;31.89;nan;99298.94;5076130;28;20455;-67
2022/07/22 10:44:02;;;;;;;3.90;3.05;;;;;;;31.08;nan;99300.47;5041157;28;20493;-67
2022/07/22 10:46:49;;;;;;;3.80;3.50;;;;;;;30.70;nan;99296.50;5058173;28;20054;-70
2022/07/22 10:49:16;;;;;;;5.82;3.42;;;;;;;30.09;nan;99295.38;5057984;28;20040;-68
2022/07/22 10:52:07;;;;;;;3.90;3.53;;;;;;;30.02;nan;99291.94;5040778;28;20050;-68
2022/07/22 10:54:32;;;;;;;4.28;3.38;;;;;;;29.19;nan;99286.75;5041511;28;20532;-65
2022/07/22 10:57:00;;;;;;;3.40;3.10;;;;;;;28.69;nan;99284.38;5076995;28;20554;-66
2022/07/22 10:59:24;;;;;;;5.50;3.50;;;;;;;28.26;nan;99290.09;5078041;28;20513;-66
2022/07/22 11:01:53;;;;;;;4.63;3.00;;;;;;;27.77;nan;99293.88;5078234;28;20516;-67
2022/07/22 11:04:24;;;;;;;3.38;2.90;;;;;;;27.43;nan;99290.63;5078171;28;20493;-65
2022/07/22 11:06:51;;;;;;;7.55;3.67;;;;;;;27.09;nan;99296.66;5076913;28;20050;-64
2022/07/22 11:09:18;;;;;;;7.25;3.80;;;;;;;27.13;nan;99289.69;5076568;28;20505;-64
2022/07/22 11:11:47;;;;;;;8.45;3.50;;;;;;;27.42;nan;99288.97;5076217;28;20052;-65
2022/07/22 11:14:32;;;;;;;3.80;3.33;;;;;;;27.81;nan;99284.13;5076263;28;20038;-63
2022/07/22 11:17:06;;;;;;;6.40;3.15;;;;;;;27.88;nan;99293.09;5076392;28;20127;-64
2022/07/22 11:19:37;;;;;;;5.97;3.70;;;;;;;28.04;nan;99291.63;5057911;28;20043;-66
2022/07/22 11:22:07;;;;;;;6.28;2.95;;;;;;;28.28;nan;99287.97;5058156;28;20494;-67
2022/07/22 11:24:32;;;;;;;4.32;3.20;;;;;;;28.30;nan;99285.84;5076246;28;20097;-62
2022/07/22 11:26:59;;;;;;;4.20;3.15;;;;;;;28.08;nan;99279.16;5075628;28;20399;-63
2022/07/22 11:29:29;;;;;;;3.63;3.15;;;;;;;27.76;nan;99290.31;5075601;28;20100;-63
2022/07/22 11:31:56;;;;;;;5.50;3.35;;;;;;;27.36;nan;99280.81;5022979;28;20184;-63
2022/07/22 11:34:22;;;;;;;3.60;2.88;;;;;;;27.25;nan;99282.41;5075440;28;20043;-68
2022/07/22 11:36:47;;;;;;;4.00;3.05;;;;;;;27.22;nan;99287.50;5078430;28;20051;-63
2022/07/22 11:39:17;;;;;;;5.65;3.45;;;;;;;27.19;nan;99293.44;5059248;28;20306;-63
2022/07/22 11:41:42;;;;;;;8.63;3.42;;;;;;;27.10;nan;99290.97;5079052;28;20512;-63
2022/07/22 11:44:07;;;;;;;3.42;3.10;;;;;;;27.03;nan;99283.88;5057901;28;20501;-64
2022/07/22 11:46:40;;;;;;;5.82;3.65;;;;;;;27.09;nan;99292.03;5075282;28;20429;-64
2022/07/22 11:49:05;;;;;;;4.30;3.53;;;;;;;27.12;nan;99288.00;5057543;28;20180;-70
2022/07/22 11:51:32;;;;;;;5.65;3.65;;;;;;;27.06;nan;99292.50;5075264;28;20399;-68
2022/07/22 11:53:57;;;;;;;4.82;3.47;;;;;;;26.81;nan;99277.94;5057201;28;20173;-69
2022/07/22 11:56:22;;;;;;;3.83;3.33;;;;;;;26.71;nan;99285.81;5056996;28;20055;-68
2022/07/22 11:58:55;;;;;;;3.85;3.42;;;;;;;26.72;nan;99287.50;5075143;28;20035;-68